Terminal Aerodrome Forecast
Issued by NWS

Home | Current Version | Previous Version | Text Only | Print | Product List | Glossary On
Versions: 1 2 3 4 5 6 7 8 9 10 11 12 13 14 15 16 17 18 19
000
FTUS44 KBMX 191139
TAFANB
TAF
KANB 191139Z 1912/2012 20007KT P6SM -RA SCT020 OVC050
     FM191300 20007KT P6SM BKN012 OVC025
      TEMPO 1913/1915 22010G20KT 1SM +TSRA BKN009CB OVC015
     FM191600 22009KT P6SM OVC015
     FM191800 23009KT P6SM BKN035=

USA.gov is the U.S. government's official web portal to all federal, state and local government web resources and services.